Aviation Digital Data Service (ADDS)

Output produced by METARs form (2057 UTC 29 May 2017)
found at http://www.aviationweather.gov/adds/metars/
 
GBYD 292000Z 25009KT 9999 FEW012 SCT120 26/23 Q1013
TAF GBYD 291730Z 2918/3024 26008KT 9999 SCT013